Time;durP1;ratioP1;P1;durP2;ratioP2;P2;SDS_P1;SDS_P2;PMS_P1;PMS_P2;Temp;Humidity;BMP_temperature;BMP_pressure;BME280_temperature;BME280_humidity;BME280_pressure;Samples;Min_cycle;Max_cycle;Signal;HPM_P1;HPM_P2
2022/10/22 00:00:34;;;;;;;12.15;8.70;;;;;;;;;;1870280;76;21085;-85
2022/10/22 00:03:04;;;;;;;12.63;9.20;;;;;;;;;;1882523;75;21122;-85
2022/10/22 00:05:34;;;;;;;12.73;7.60;;;;;;;;;;1891718;76;21142;-85
2022/10/22 00:08:05;;;;;;;11.83;9.10;;;;;;;;;;1886172;76;21193;-85
2022/10/22 00:10:36;;;;;;;11.08;7.25;;;;;;;;;;1879127;75;21150;-85
2022/10/22 00:13:06;;;;;;;11.40;7.50;;;;;;;;;;1877587;75;21100;-86
2022/10/22 00:15:37;;;;;;;10.78;7.12;;;;;;;;;;1877836;75;21089;-84
2022/10/22 00:18:07;;;;;;;10.95;7.53;;;;;;;;;;1873454;75;21578;-86
2022/10/22 00:20:37;;;;;;;12.85;8.68;;;;;;;;;;1879212;76;21130;-84
2022/10/22 00:23:08;;;;;;;12.85;7.65;;;;;;;;;;1875148;75;21218;-84
2022/10/22 00:25:38;;;;;;;10.88;7.90;;;;;;;;;;1873233;75;21638;-83
2022/10/22 00:28:10;;;;;;;14.73;7.95;;;;;;;;;;1877324;76;21208;-85
2022/10/22 00:30:40;;;;;;;11.38;7.05;;;;;;;;;;1877060;76;21185;-84
2022/10/22 00:33:10;;;;;;;12.03;8.00;;;;;;;;;;1876334;75;21100;-86
2022/10/22 00:35:40;;;;;;;11.73;7.40;;;;;;;;;;1874086;76;21142;-83
2022/10/22 00:38:11;;;;;;;12.40;7.67;;;;;;;;;;1921991;73;21108;-84
2022/10/22 00:40:41;;;;;;;14.30;7.55;;;;;;;;;;1864505;74;21102;-84
2022/10/22 00:43:12;;;;;;;11.08;8.00;;;;;;;;;;1865899;76;21050;-84
2022/10/22 00:45:43;;;;;;;10.08;6.97;;;;;;;;;;1910915;74;21088;-84
2022/10/22 00:48:15;;;;;;;12.40;7.80;;;;;;;;;;1914953;73;21049;-85
2022/10/22 00:50:49;;;;;;;11.20;7.87;;;;;;;;;;1905496;74;21134;-84
2022/10/22 00:53:21;;;;;;;12.28;8.43;;;;;;;;;;1896922;75;21175;-85
2022/10/22 00:55:52;;;;;;;12.53;7.83;;;;;;;;;;1903402;74;21697;-85
2022/10/22 00:58:24;;;;;;;12.80;8.60;;;;;;;;;;1913699;74;21132;-85
2022/10/22 01:00:54;;;;;;;13.40;9.75;;;;;;;;;;1912290;73;21129;-85
2022/10/22 01:03:25;;;;;;;12.10;8.83;;;;;;;;;;1916173;74;21139;-85
2022/10/22 01:06:03;;;;;;;12.37;8.28;;;;;;;;;;1922636;73;21147;-85
2022/10/22 01:08:34;;;;;;;10.65;8.00;;;;;;;;;;1905544;74;21080;-86
2022/10/22 01:11:06;;;;;;;10.98;8.50;;;;;;;;;;1915739;74;21077;-88
2022/10/22 01:13:37;;;;;;;11.78;7.58;;;;;;;;;;1914296;74;21183;-86
2022/10/22 01:16:10;;;;;;;10.13;6.92;;;;;;;;;;1895819;75;21245;-87
2022/10/22 01:18:42;;;;;;;11.95;8.25;;;;;;;;;;1913598;74;21171;-85
2022/10/22 01:21:32;;;;;;;12.00;7.37;;;;;;;;;;1825787;76;21192;-86
2022/10/22 01:24:19;;;;;;;12.88;7.20;;;;;;;;;;1904139;73;21067;-86
2022/10/22 01:27:07;;;;;;;8.63;6.20;;;;;;;;;;1901220;73;21150;-86
2022/10/22 01:29:39;;;;;;;12.68;6.03;;;;;;;;;;1861175;76;21651;-86
2022/10/22 01:32:10;;;;;;;8.95;6.28;;;;;;;;;;1925890;73;21064;-85
2022/10/22 01:34:45;;;;;;;8.15;6.00;;;;;;;;;;1924724;73;21184;-86
2022/10/22 01:37:16;;;;;;;8.80;5.78;;;;;;;;;;1925372;73;21801;-86
2022/10/22 01:39:47;;;;;;;7.75;5.65;;;;;;;;;;1936210;72;21114;-86
2022/10/22 01:42:17;;;;;;;10.30;5.65;;;;;;;;;;1928443;73;21103;-87
2022/10/22 01:44:59;;;;;;;8.88;5.55;;;;;;;;;;1923813;73;21169;-86
2022/10/22 01:47:47;;;;;;;8.28;5.45;;;;;;;;;;1928997;73;21226;-87
2022/10/22 01:50:34;;;;;;;6.83;4.42;;;;;;;;;;1928597;73;21220;-86
2022/10/22 01:53:06;;;;;;;8.10;5.03;;;;;;;;;;1937324;73;21169;-87
2022/10/22 01:55:55;;;;;;;7.37;4.50;;;;;;;;;;1930526;73;21126;-87
2022/10/22 01:58:39;;;;;;;6.42;4.47;;;;;;;;;;1941794;73;21185;-87
2022/10/22 02:01:16;;;;;;;5.85;4.62;;;;;;;;;;1931349;73;21560;-87
2022/10/22 02:03:51;;;;;;;8.78;4.40;;;;;;;;;;1938580;73;21087;-86
2022/10/22 02:06:28;;;;;;;6.97;4.33;;;;;;;;;;1918876;73;21122;-88
2022/10/22 02:08:59;;;;;;;7.87;4.70;;;;;;;;;;1922514;73;21104;-87
2022/10/22 02:11:30;;;;;;;8.45;4.58;;;;;;;;;;1933567;73;21425;-87
2022/10/22 02:14:01;;;;;;;8.18;4.70;;;;;;;;;;1940415;73;21074;-87
2022/10/22 02:16:35;;;;;;;6.42;4.22;;;;;;;;;;1935406;73;21521;-87
2022/10/22 02:19:19;;;;;;;7.90;4.25;;;;;;;;;;1927566;73;21139;-86
2022/10/22 02:21:49;;;;;;;7.08;4.00;;;;;;;;;;1937726;73;21230;-76
2022/10/22 02:24:21;;;;;;;9.60;3.85;;;;;;;;;;1930305;73;21077;-78
2022/10/22 02:26:59;;;;;;;10.60;3.65;;;;;;;;;;1932985;73;21127;-80
2022/10/22 02:29:36;;;;;;;9.75;3.02;;;;;;;;;;1938298;73;21232;-79
2022/10/22 02:32:08;;;;;;;6.10;2.20;;;;;;;;;;1931167;73;21119;-77
2022/10/22 02:34:38;;;;;;;4.05;2.62;;;;;;;;;;1932732;73;21118;-77
2022/10/22 02:37:09;;;;;;;4.47;2.30;;;;;;;;;;1914104;74;21205;-77
2022/10/22 02:39:40;;;;;;;4.12;2.45;;;;;;;;;;1871565;75;21555;-80
2022/10/22 02:42:13;;;;;;;3.83;2.30;;;;;;;;;;1866942;75;21087;-77
2022/10/22 02:44:44;;;;;;;4.78;2.17;;;;;;;;;;1828729;77;21065;-77
2022/10/22 02:47:15;;;;;;;3.45;2.55;;;;;;;;;;1817948;79;21239;-79
2022/10/22 02:49:45;;;;;;;4.47;2.25;;;;;;;;;;1919101;74;21864;-74
2022/10/22 02:52:16;;;;;;;4.22;2.12;;;;;;;;;;1919036;74;21614;-79
2022/10/22 02:54:46;;;;;;;3.70;1.85;;;;;;;;;;1913886;74;21524;-78
2022/10/22 02:57:17;;;;;;;5.85;2.20;;;;;;;;;;1911402;74;21516;-80
2022/10/22 02:59:47;;;;;;;3.33;2.00;;;;;;;;;;1926240;74;21120;-80
2022/10/22 03:02:18;;;;;;;9.03;2.83;;;;;;;;;;1915569;74;21598;-81
2022/10/22 03:04:48;;;;;;;4.87;2.45;;;;;;;;;;1903242;74;21075;-82
2022/10/22 03:07:18;;;;;;;4.55;2.50;;;;;;;;;;1913187;74;21196;-80
2022/10/22 03:09:49;;;;;;;4.35;2.25;;;;;;;;;;1916736;74;21064;-79
2022/10/22 03:12:19;;;;;;;4.15;2.40;;;;;;;;;;1913136;74;21131;-81
2022/10/22 03:14:49;;;;;;;3.20;1.98;;;;;;;;;;1915683;73;21152;-78
2022/10/22 03:17:20;;;;;;;4.40;2.50;;;;;;;;;;1914700;74;21802;-79
2022/10/22 03:19:50;;;;;;;3.20;2.20;;;;;;;;;;1913227;74;21778;-80
2022/10/22 03:22:21;;;;;;;3.17;2.17;;;;;;;;;;1915547;74;21096;-77
2022/10/22 03:24:53;;;;;;;4.45;2.22;;;;;;;;;;1911041;74;21187;-79
2022/10/22 03:27:33;;;;;;;2.75;2.00;;;;;;;;;;1916442;74;21154;-79
2022/10/22 03:30:06;;;;;;;5.12;2.45;;;;;;;;;;1903598;74;21204;-80
2022/10/22 03:32:36;;;;;;;5.45;2.10;;;;;;;;;;1849732;76;21176;-78
2022/10/22 03:35:07;;;;;;;3.12;2.27;;;;;;;;;;1857694;75;21071;-80
2022/10/22 03:37:39;;;;;;;3.50;2.20;;;;;;;;;;1862697;75;21140;-78
2022/10/22 03:40:10;;;;;;;4.60;2.10;;;;;;;;;;1851395;76;21606;-77
2022/10/22 03:42:41;;;;;;;3.60;2.83;;;;;;;;;;1838323;76;21238;-78
2022/10/22 03:45:11;;;;;;;4.58;3.00;;;;;;;;;;1856458;76;21105;-79
2022/10/22 03:47:42;;;;;;;3.67;2.33;;;;;;;;;;1845554;77;21108;-81
2022/10/22 03:50:13;;;;;;;2.95;2.20;;;;;;;;;;1847416;77;21220;-77
2022/10/22 03:52:44;;;;;;;4.08;2.08;;;;;;;;;;1851713;77;21156;-80
2022/10/22 03:55:14;;;;;;;4.62;2.65;;;;;;;;;;1844216;76;21178;-80
2022/10/22 03:57:45;;;;;;;4.28;2.65;;;;;;;;;;1852637;76;21072;-81
2022/10/22 04:00:16;;;;;;;7.15;2.45;;;;;;;;;;1845620;76;21213;-80
2022/10/22 04:02:47;;;;;;;5.03;2.10;;;;;;;;;;1845179;76;21266;-81
2022/10/22 04:05:19;;;;;;;5.97;2.22;;;;;;;;;;1846403;76;21161;-78
2022/10/22 04:07:50;;;;;;;5.25;2.40;;;;;;;;;;1852445;76;21144;-80
2022/10/22 04:10:22;;;;;;;2.55;1.77;;;;;;;;;;1879735;75;21183;-78
2022/10/22 04:12:57;;;;;;;7.45;2.60;;;;;;;;;;1867503;75;21201;-79
2022/10/22 04:15:31;;;;;;;5.37;2.52;;;;;;;;;;1850180;76;21181;-79
2022/10/22 04:18:05;;;;;;;5.17;2.22;;;;;;;;;;1858965;77;21152;-80
2022/10/22 04:20:35;;;;;;;3.62;2.20;;;;;;;;;;1855176;76;21128;-81
2022/10/22 04:23:10;;;;;;;5.35;3.37;;;;;;;;;;1922520;74;21087;-80
2022/10/22 04:25:37;;;;;;;4.50;2.75;;;;;;;;;;1916501;74;21107;-80
2022/10/22 04:28:09;;;;;;;5.97;2.60;;;;;;;;;;1923152;74;21197;-80
2022/10/22 04:30:39;;;;;;;3.77;2.33;;;;;;;;;;1924836;74;21215;-80
2022/10/22 04:33:09;;;;;;;3.42;2.15;;;;;;;;;;1912446;74;21140;-78
2022/10/22 04:35:40;;;;;;;3.22;2.10;;;;;;;;;;1920328;74;21180;-81
2022/10/22 04:38:10;;;;;;;4.58;2.10;;;;;;;;;;1924675;73;21220;-80
2022/10/22 04:40:41;;;;;;;3.58;1.77;;;;;;;;;;1898350;74;21164;-78
2022/10/22 04:43:12;;;;;;;5.25;1.98;;;;;;;;;;1898491;75;21151;-80
2022/10/22 04:45:42;;;;;;;4.28;2.47;;;;;;;;;;1894275;74;21245;-79
2022/10/22 04:48:12;;;;;;;4.85;2.62;;;;;;;;;;1901727;74;21201;-80
2022/10/22 04:50:47;;;;;;;4.40;2.45;;;;;;;;;;1891331;74;21160;-80
2022/10/22 04:53:14;;;;;;;5.20;3.35;;;;;;;;;;1898314;74;21178;-79
2022/10/22 04:55:47;;;;;;;4.90;2.37;;;;;;;;;;1912206;74;21949;-80
2022/10/22 04:58:18;;;;;;;6.28;3.60;;;;;;;;;;1898308;74;21134;-79
2022/10/22 05:00:51;;;;;;;4.70;2.92;;;;;;;;;;1895006;74;21178;-80
2022/10/22 05:03:27;;;;;;;4.78;3.00;;;;;;;;;;1887958;75;21114;-80
2022/10/22 05:05:59;;;;;;;4.72;3.10;;;;;;;;;;1893340;74;21800;-82
2022/10/22 05:08:33;;;;;;;6.15;3.33;;;;;;;;;;1895648;75;21161;-79
2022/10/22 05:11:04;;;;;;;4.20;3.20;;;;;;;;;;1898254;74;21134;-81
2022/10/22 05:13:35;;;;;;;5.08;3.00;;;;;;;;;;1895936;75;21161;-82
2022/10/22 05:16:09;;;;;;;4.67;3.12;;;;;;;;;;1901036;74;21167;-79
2022/10/22 05:18:41;;;;;;;5.70;3.12;;;;;;;;;;1904670;74;21189;-78
2022/10/22 05:21:13;;;;;;;5.72;3.50;;;;;;;;;;1912032;74;21088;-78
2022/10/22 05:23:44;;;;;;;5.30;3.40;;;;;;;;;;1901577;74;21187;-76
2022/10/22 05:26:17;;;;;;;3.17;2.72;;;;;;;;;;1902568;74;21931;-76
2022/10/22 05:28:48;;;;;;;5.22;3.12;;;;;;;;;;1914373;74;21178;-76
2022/10/22 05:31:19;;;;;;;4.45;2.60;;;;;;;;;;1857399;76;21150;-77
2022/10/22 05:33:49;;;;;;;4.03;2.90;;;;;;;;;;1853190;76;21144;-77
2022/10/22 05:36:21;;;;;;;3.62;2.67;;;;;;;;;;1860347;75;21087;-77
2022/10/22 05:38:57;;;;;;;4.08;2.70;;;;;;;;;;1863574;74;21151;-77
2022/10/22 05:41:28;;;;;;;4.08;2.72;;;;;;;;;;1877757;76;21169;-76
2022/10/22 05:43:59;;;;;;;7.15;2.90;;;;;;;;;;1907771;75;21131;-76
2022/10/22 05:46:30;;;;;;;3.20;2.30;;;;;;;;;;1921393;74;21088;-76
2022/10/22 05:49:01;;;;;;;4.22;2.50;;;;;;;;;;1891907;75;21165;-75
2022/10/22 05:51:32;;;;;;;6.35;3.22;;;;;;;;;;1867606;75;21063;-77
2022/10/22 05:54:04;;;;;;;7.35;3.37;;;;;;;;;;1870629;76;21579;-77
2022/10/22 05:56:36;;;;;;;4.12;2.75;;;;;;;;;;1889692;75;21169;-74
2022/10/22 05:59:06;;;;;;;5.35;3.42;;;;;;;;;;1885189;75;21710;-77
2022/10/22 06:01:38;;;;;;;7.78;3.20;;;;;;;;;;1837797;75;21185;-76
2022/10/22 06:04:10;;;;;;;6.25;2.70;;;;;;;;;;1862827;76;21642;-76
2022/10/22 06:06:41;;;;;;;5.28;3.02;;;;;;;;;;1873904;75;21131;-76
2022/10/22 06:09:13;;;;;;;6.42;3.15;;;;;;;;;;1872729;75;21058;-74
2022/10/22 06:11:43;;;;;;;3.77;2.75;;;;;;;;;;1875048;74;21182;-77
2022/10/22 06:14:13;;;;;;;4.40;2.77;;;;;;;;;;1845350;77;21188;-77
2022/10/22 06:16:44;;;;;;;5.17;2.77;;;;;;;;;;1855751;75;21637;-77
2022/10/22 06:19:16;;;;;;;3.55;2.50;;;;;;;;;;1867222;76;21097;-75
2022/10/22 06:21:52;;;;;;;4.22;2.90;;;;;;;;;;1844977;77;21115;-77
2022/10/22 06:24:19;;;;;;;5.42;3.00;;;;;;;;;;1881898;75;21197;-77
2022/10/22 06:26:50;;;;;;;4.42;2.92;;;;;;;;;;1856874;77;21586;-75
2022/10/22 06:29:25;;;;;;;7.05;2.85;;;;;;;;;;1842858;77;21239;-78
2022/10/22 06:31:55;;;;;;;4.60;3.15;;;;;;;;;;1858092;75;21251;-76
2022/10/22 06:34:26;;;;;;;6.10;3.10;;;;;;;;;;1848876;77;21115;-76
2022/10/22 06:36:57;;;;;;;5.42;2.70;;;;;;;;;;1898149;75;21585;-75
2022/10/22 06:39:27;;;;;;;5.20;3.08;;;;;;;;;;1880809;75;21153;-75
2022/10/22 06:42:05;;;;;;;5.62;3.25;;;;;;;;;;1880102;76;21117;-77
2022/10/22 06:44:36;;;;;;;4.78;3.30;;;;;;;;;;1878123;75;21093;-76
2022/10/22 06:47:06;;;;;;;6.97;3.25;;;;;;;;;;1863409;76;21197;-76
2022/10/22 06:49:37;;;;;;;5.50;2.98;;;;;;;;;;1875227;75;21166;-76
2022/10/22 06:52:07;;;;;;;3.72;2.85;;;;;;;;;;1875240;75;21101;-76
2022/10/22 06:54:38;;;;;;;6.62;2.77;;;;;;;;;;1859433;77;21091;-76
2022/10/22 06:57:08;;;;;;;5.45;3.40;;;;;;;;;;1898899;75;21181;-77
2022/10/22 06:59:38;;;;;;;4.75;3.35;;;;;;;;;;1886284;76;21114;-76
2022/10/22 07:02:12;;;;;;;5.85;3.25;;;;;;;;;;1898325;75;21108;-77
2022/10/22 07:04:42;;;;;;;7.75;3.40;;;;;;;;;;1836697;76;21158;-77
2022/10/22 07:07:13;;;;;;;4.85;3.70;;;;;;;;;;1872638;75;21648;-77
2022/10/22 07:09:48;;;;;;;6.42;4.20;;;;;;;;;;1873941;76;21188;-76
2022/10/22 07:12:16;;;;;;;5.45;3.87;;;;;;;;;;1875643;76;21143;-75
2022/10/22 07:14:46;;;;;;;5.47;3.75;;;;;;;;;;1880643;76;21578;-76
2022/10/22 07:17:18;;;;;;;5.28;4.10;;;;;;;;;;1882863;76;21663;-80
2022/10/22 07:19:49;;;;;;;8.73;4.25;;;;;;;;;;1871413;76;21159;-79
2022/10/22 07:22:20;;;;;;;6.85;4.28;;;;;;;;;;1865671;76;21729;-81
2022/10/22 07:24:51;;;;;;;5.80;4.22;;;;;;;;;;1868174;75;21213;-78
2022/10/22 07:27:21;;;;;;;5.40;3.80;;;;;;;;;;1867881;76;21154;-80
2022/10/22 07:29:51;;;;;;;7.05;4.12;;;;;;;;;;1868630;76;21147;-81
2022/10/22 07:32:22;;;;;;;6.78;4.95;;;;;;;;;;1871193;76;21161;-80
2022/10/22 07:34:52;;;;;;;7.03;4.90;;;;;;;;;;1866551;76;21139;-79
2022/10/22 07:37:23;;;;;;;6.60;5.10;;;;;;;;;;1875698;76;21182;-81
2022/10/22 07:39:53;;;;;;;7.30;4.78;;;;;;;;;;1895390;75;21951;-79
2022/10/22 07:42:25;;;;;;;5.37;4.70;;;;;;;;;;1854141;77;21162;-80
2022/10/22 07:44:55;;;;;;;6.90;4.95;;;;;;;;;;1844668;76;21131;-80
2022/10/22 07:47:26;;;;;;;7.55;5.42;;;;;;;;;;1834319;77;21166;-80
2022/10/22 07:49:56;;;;;;;7.05;4.97;;;;;;;;;;1859130;75;21153;-80
2022/10/22 07:52:27;;;;;;;6.25;5.55;;;;;;;;;;1865931;75;21149;-81
2022/10/22 07:54:58;;;;;;;6.25;5.10;;;;;;;;;;1867715;76;21156;-81
2022/10/22 07:57:28;;;;;;;10.08;5.58;;;;;;;;;;1879433;76;21614;-79
2022/10/22 07:59:58;;;;;;;7.35;5.17;;;;;;;;;;1835308;75;21075;-79
2022/10/22 08:02:29;;;;;;;5.87;4.90;;;;;;;;;;1876180;75;21738;-79
2022/10/22 08:04:59;;;;;;;7.30;4.90;;;;;;;;;;1878230;75;21224;-81
2022/10/22 08:07:30;;;;;;;9.58;5.53;;;;;;;;;;1877291;76;21146;-80
2022/10/22 08:10:00;;;;;;;7.03;5.05;;;;;;;;;;1865227;76;21073;-80
2022/10/22 08:12:30;;;;;;;6.78;5.50;;;;;;;;;;1868228;76;21107;-80
2022/10/22 08:15:00;;;;;;;6.47;5.20;;;;;;;;;;1864981;76;21272;-80
2022/10/22 08:17:31;;;;;;;7.80;5.35;;;;;;;;;;1872486;74;21180;-82
2022/10/22 08:20:04;;;;;;;7.35;5.30;;;;;;;;;;1839333;77;21142;-81
2022/10/22 08:22:38;;;;;;;7.78;5.17;;;;;;;;;;1837784;77;21155;-81
2022/10/22 08:25:10;;;;;;;5.87;5.03;;;;;;;;;;1878965;74;21199;-81
2022/10/22 08:27:41;;;;;;;6.70;4.95;;;;;;;;;;1867051;76;21539;-82
2022/10/22 08:30:12;;;;;;;7.47;5.05;;;;;;;;;;1849914;77;21114;-80
2022/10/22 08:32:43;;;;;;;7.22;5.47;;;;;;;;;;1874554;76;21071;-82
2022/10/22 08:35:16;;;;;;;7.83;4.97;;;;;;;;;;1842331;75;21183;-80
2022/10/22 08:37:46;;;;;;;6.95;5.58;;;;;;;;;;1871566;76;21142;-82
2022/10/22 08:40:17;;;;;;;8.98;5.78;;;;;;;;;;1869975;74;21236;-83
2022/10/22 08:42:52;;;;;;;7.53;5.17;;;;;;;;;;1864022;75;21164;-81
2022/10/22 08:45:26;;;;;;;6.85;5.60;;;;;;;;;;1869253;76;21122;-81
2022/10/22 08:48:04;;;;;;;8.88;5.35;;;;;;;;;;1865600;76;21147;-80
2022/10/22 08:50:36;;;;;;;9.00;6.30;;;;;;;;;;1863410;76;21133;-82
2022/10/22 08:53:07;;;;;;;8.53;5.28;;;;;;;;;;1863768;76;21083;-82
2022/10/22 08:55:39;;;;;;;7.15;5.58;;;;;;;;;;1870172;76;21172;-81
2022/10/22 08:58:15;;;;;;;8.45;6.10;;;;;;;;;;1865155;75;21176;-81
2022/10/22 09:00:49;;;;;;;8.33;5.72;;;;;;;;;;1872450;76;21566;-80
2022/10/22 09:03:26;;;;;;;7.35;5.47;;;;;;;;;;1870042;75;21174;-80
2022/10/22 09:05:57;;;;;;;6.55;4.90;;;;;;;;;;1867208;75;21111;-81
2022/10/22 09:08:28;;;;;;;7.33;5.70;;;;;;;;;;1865533;76;21109;-80
2022/10/22 09:11:15;;;;;;;9.05;5.67;;;;;;;;;;1866885;76;21166;-80
2022/10/22 09:13:46;;;;;;;6.20;4.92;;;;;;;;;;1866863;76;21716;-80
2022/10/22 09:16:17;;;;;;;9.18;6.10;;;;;;;;;;1866070;76;21153;-79
2022/10/22 09:18:58;;;;;;;8.18;6.40;;;;;;;;;;1870211;76;21135;-81
2022/10/22 09:21:38;;;;;;;7.90;6.00;;;;;;;;;;1868472;76;21154;-80
2022/10/22 09:24:19;;;;;;;12.70;6.80;;;;;;;;;;1866394;76;21122;-81
2022/10/22 09:26:51;;;;;;;7.92;6.30;;;;;;;;;;1865541;76;21186;-81
2022/10/22 09:29:23;;;;;;;8.53;6.75;;;;;;;;;;1868261;76;21192;-79
2022/10/22 09:31:55;;;;;;;8.35;6.47;;;;;;;;;;1870801;76;21083;-80
2022/10/22 09:34:26;;;;;;;9.58;7.12;;;;;;;;;;1868782;76;21551;-79
2022/10/22 09:37:01;;;;;;;12.53;7.60;;;;;;;;;;1873164;75;21139;-81
2022/10/22 09:39:38;;;;;;;12.13;7.00;;;;;;;;;;1863610;75;21131;-81
2022/10/22 09:42:10;;;;;;;10.25;6.85;;;;;;;;;;1861148;75;21088;-79
2022/10/22 09:44:40;;;;;;;9.63;6.85;;;;;;;;;;1855222;76;21127;-81
2022/10/22 09:47:13;;;;;;;11.25;7.35;;;;;;;;;;1886549;74;21056;-79
2022/10/22 09:49:44;;;;;;;9.73;8.00;;;;;;;;;;1862400;76;21239;-81
2022/10/22 09:52:18;;;;;;;10.90;7.10;;;;;;;;;;1822876;77;21161;-79
2022/10/22 09:54:52;;;;;;;13.18;7.70;;;;;;;;;;1862844;76;21722;-80
2022/10/22 09:57:29;;;;;;;10.40;7.65;;;;;;;;;;1855448;77;21251;-78
2022/10/22 09:59:56;;;;;;;8.00;7.00;;;;;;;;;;1852001;76;21209;-78
2022/10/22 10:02:29;;;;;;;8.30;7.42;;;;;;;;;;1856458;76;21692;-78
2022/10/22 10:05:04;;;;;;;11.18;8.45;;;;;;;;;;1847699;76;21140;-78
2022/10/22 10:07:39;;;;;;;11.25;8.35;;;;;;;;;;1868192;76;21135;-78
2022/10/22 10:10:23;;;;;;;13.40;8.20;;;;;;;;;;1866929;77;21147;-80
2022/10/22 10:12:59;;;;;;;9.58;8.25;;;;;;;;;;1869025;76;21646;-79
2022/10/22 10:15:35;;;;;;;13.35;8.20;;;;;;;;;;1898418;75;21083;-79
2022/10/22 10:18:06;;;;;;;11.33;8.80;;;;;;;;;;1870426;75;21071;-80
2022/10/22 10:20:44;;;;;;;10.80;8.28;;;;;;;;;;1841777;76;21214;-80
2022/10/22 10:23:19;;;;;;;10.50;8.58;;;;;;;;;;1866056;76;21579;-79
2022/10/22 10:26:01;;;;;;;11.37;7.80;;;;;;;;;;1869679;76;21444;-80
2022/10/22 10:28:37;;;;;;;10.43;8.60;;;;;;;;;;1852918;76;21096;-77
2022/10/22 10:31:12;;;;;;;22.98;16.80;;;;;;;;;;1873323;75;21187;-78
2022/10/22 10:34:01;;;;;;;12.58;8.95;;;;;;;;;;1863000;76;21225;-79
2022/10/22 10:36:34;;;;;;;8.20;7.28;;;;;;;;;;1857596;76;21104;-80
2022/10/22 10:39:06;;;;;;;11.97;8.85;;;;;;;;;;1880357;76;21166;-79
2022/10/22 10:41:37;;;;;;;12.75;9.08;;;;;;;;;;1868924;76;21752;-77
2022/10/22 10:44:27;;;;;;;14.85;8.53;;;;;;;;;;1869355;76;21188;-80
2022/10/22 10:47:02;;;;;;;13.38;8.45;;;;;;;;;;1851742;77;21114;-80
2022/10/22 10:49:36;;;;;;;10.00;8.13;;;;;;;;;;1876229;76;21571;-79
2022/10/22 10:52:16;;;;;;;12.00;8.43;;;;;;;;;;1865713;76;21061;-78
2022/10/22 10:54:56;;;;;;;12.75;8.40;;;;;;;;;;1862800;76;21083;-79
2022/10/22 10:57:39;;;;;;;11.73;7.95;;;;;;;;;;1858482;76;21167;-78
2022/10/22 11:00:13;;;;;;;10.30;7.75;;;;;;;;;;1848147;76;21210;-80
2022/10/22 11:02:47;;;;;;;10.40;8.10;;;;;;;;;;1870698;76;21650;-78
2022/10/22 11:05:22;;;;;;;12.82;8.68;;;;;;;;;;1868755;76;21170;-79
2022/10/22 11:07:56;;;;;;;12.70;8.53;;;;;;;;;;1862957;76;21545;-80
2022/10/22 11:10:28;;;;;;;21.40;9.93;;;;;;;;;;1875615;76;21158;-78
2022/10/22 11:13:02;;;;;;;;;;;;;;;;;;1882659;76;21091;-75
2022/10/22 11:15:34;;;;;;;11.65;8.50;;;;;;;;;;1876291;76;20425;-79
2022/10/22 11:18:06;;;;;;;9.63;7.97;;;;;;;;;;1863890;76;21671;-78
2022/10/22 11:20:44;;;;;;;14.30;8.93;;;;;;;;;;1856789;76;21205;-78
2022/10/22 11:23:31;;;;;;;12.53;9.15;;;;;;;;;;1868045;76;21130;-79
2022/10/22 11:26:02;;;;;;;14.75;9.48;;;;;;;;;;1868239;76;21163;-77
2022/10/22 11:28:34;;;;;;;13.05;9.60;;;;;;;;;;1873569;76;21134;-84
2022/10/22 11:31:05;;;;;;;14.35;9.20;;;;;;;;;;1860397;76;21147;-85
2022/10/22 11:33:40;;;;;;;12.45;8.65;;;;;;;;;;1870719;76;21179;-84
2022/10/22 11:36:10;;;;;;;14.07;9.48;;;;;;;;;;1872504;76;21240;-84
2022/10/22 11:38:41;;;;;;;12.58;9.45;;;;;;;;;;1866250;76;21204;-84
2022/10/22 11:41:12;;;;;;;11.43;9.48;;;;;;;;;;1862533;76;21617;-85
2022/10/22 11:43:58;;;;;;;15.40;10.82;;;;;;;;;;1886145;74;21142;-85
2022/10/22 11:46:30;;;;;;;14.60;10.78;;;;;;;;;;1857321;77;21146;-85
2022/10/22 11:49:02;;;;;;;16.57;10.43;;;;;;;;;;1882071;74;21119;-83
2022/10/22 11:51:38;;;;;;;14.18;10.90;;;;;;;;;;1880087;75;21166;-85
2022/10/22 11:54:28;;;;;;;15.28;10.75;;;;;;;;;;1863897;74;21181;-82
2022/10/22 11:56:59;;;;;;;16.17;13.25;;;;;;;;;;1870874;75;21570;-85
2022/10/22 11:59:34;;;;;;;17.80;13.13;;;;;;;;;;1872417;74;21180;-84
2022/10/22 12:02:06;;;;;;;19.73;14.00;;;;;;;;;;1932024;74;21134;-84
2022/10/22 12:04:42;;;;;;;19.90;14.13;;;;;;;;;;1911104;73;21091;-84
2022/10/22 12:07:30;;;;;;;16.93;13.75;;;;;;;;;;1910587;74;21067;-86
2022/10/22 12:10:02;;;;;;;20.60;14.33;;;;;;;;;;1923996;73;21145;-84
2022/10/22 12:12:36;;;;;;;16.75;12.98;;;;;;;;;;1925277;74;21130;-82
2022/10/22 12:15:11;;;;;;;17.65;12.95;;;;;;;;;;1924063;73;21115;-83
2022/10/22 12:18:05;;;;;;;14.68;13.15;;;;;;;;;;1915687;74;21690;-85
2022/10/22 12:20:42;;;;;;;21.02;13.20;;;;;;;;;;1917163;73;21182;-86
2022/10/22 12:23:13;;;;;;;17.32;12.78;;;;;;;;;;1914464;74;21193;-85
2022/10/22 12:25:45;;;;;;;17.67;14.20;;;;;;;;;;1918043;74;21111;-86
2022/10/22 12:28:15;;;;;;;23.55;17.32;;;;;;;;;;1918028;74;21161;-84
2022/10/22 12:30:45;;;;;;;28.95;20.15;;;;;;;;;;1917655;74;21228;-86
2022/10/22 12:33:19;;;;;;;40.65;25.57;;;;;;;;;;1918631;74;21216;-84
2022/10/22 12:35:54;;;;;;;24.70;18.48;;;;;;;;;;1927048;74;21119;-85
2022/10/22 12:38:22;;;;;;;26.40;18.95;;;;;;;;;;1921607;74;21210;-83
2022/10/22 12:40:54;;;;;;;29.75;18.23;;;;;;;;;;1923721;74;21118;-85
2022/10/22 12:43:27;;;;;;;22.85;16.00;;;;;;;;;;1928489;73;21111;-85
2022/10/22 12:45:58;;;;;;;18.32;15.48;;;;;;;;;;1920902;73;21096;-84
2022/10/22 12:48:33;;;;;;;17.12;14.28;;;;;;;;;;1915450;73;21512;-87
2022/10/22 12:51:09;;;;;;;19.45;14.87;;;;;;;;;;1924061;74;21139;-84
2022/10/22 12:53:50;;;;;;;19.35;14.93;;;;;;;;;;1915558;74;21067;-84
2022/10/22 12:56:24;;;;;;;19.87;14.90;;;;;;;;;;1915906;73;21193;-85
2022/10/22 12:59:17;;;;;;;17.95;15.08;;;;;;;;;;1903853;74;21144;-84
2022/10/22 13:01:37;;;;;;;21.12;16.07;;;;;;;;;;1924771;74;21213;-84
2022/10/22 13:04:09;;;;;;;23.85;16.97;;;;;;;;;;1922721;74;21204;-85
2022/10/22 13:06:46;;;;;;;22.65;16.27;;;;;;;;;;1895506;74;21599;-84
2022/10/22 13:09:18;;;;;;;18.98;16.30;;;;;;;;;;1926521;74;21107;-83
2022/10/22 13:12:00;;;;;;;19.75;15.65;;;;;;;;;;1901942;74;21173;-86
2022/10/22 13:14:33;;;;;;;22.70;16.65;;;;;;;;;;1925565;74;21162;-84
2022/10/22 13:17:04;;;;;;;23.27;15.53;;;;;;;;;;1922285;74;21139;-84
2022/10/22 13:19:39;;;;;;;25.05;16.75;;;;;;;;;;1909576;74;21178;-84
2022/10/22 13:22:23;;;;;;;19.17;15.13;;;;;;;;;;1913272;74;21058;-84
2022/10/22 13:24:58;;;;;;;19.55;15.05;;;;;;;;;;1915732;74;21151;-84
2022/10/22 13:27:29;;;;;;;19.92;15.75;;;;;;;;;;1909179;74;21143;-83
2022/10/22 13:30:00;;;;;;;21.65;15.70;;;;;;;;;;1925079;74;21188;-83
2022/10/22 13:32:38;;;;;;;22.40;15.50;;;;;;;;;;1908034;73;21072;-85
2022/10/22 13:35:09;;;;;;;22.87;16.30;;;;;;;;;;1927672;74;21151;-80
2022/10/22 13:37:43;;;;;;;22.10;15.60;;;;;;;;;;1914001;75;21213;-81
2022/10/22 13:40:13;;;;;;;22.48;16.65;;;;;;;;;;1910656;74;22000;-83
2022/10/22 13:42:45;;;;;;;26.02;16.32;;;;;;;;;;1863922;77;21146;-83
2022/10/22 13:45:21;;;;;;;19.00;15.28;;;;;;;;;;1941242;73;21146;-83
2022/10/22 13:47:54;;;;;;;21.20;15.28;;;;;;;;;;1937350;73;21165;-84
2022/10/22 13:50:23;;;;;;;;;;;;;;;;;;1931483;73;21127;-82
2022/10/22 13:53:08;;;;;;;;;;;;;;;;;;;;;
2022/10/22 13:55:49;;;;;;;19.85;15.95;;;;;;;;;;1911865;73;21154;-84
2022/10/22 13:58:20;;;;;;;19.05;15.48;;;;;;;;;;1921551;74;21597;-84
2022/10/22 14:01:11;;;;;;;20.72;15.55;;;;;;;;;;1930553;74;21079;-82
2022/10/22 14:03:36;;;;;;;23.60;16.15;;;;;;;;;;1902157;74;21165;-82
2022/10/22 14:06:08;;;;;;;27.40;15.65;;;;;;;;;;1939758;74;21566;-82
2022/10/22 14:08:38;;;;;;;19.45;15.88;;;;;;;;;;1892013;74;21193;-83
2022/10/22 14:11:10;;;;;;;22.65;16.75;;;;;;;;;;1900855;74;21630;-83
2022/10/22 14:16:20;;;;;;;20.00;15.00;;;;;;;;;;1905089;74;21138;-84
2022/10/22 14:18:50;;;;;;;19.07;15.58;;;;;;;;;;1930494;73;21076;-82
2022/10/22 14:21:22;;;;;;;19.73;15.48;;;;;;;;;;1929800;74;21052;-82
2022/10/22 14:23:54;;;;;;;24.30;17.00;;;;;;;;;;1924663;74;21217;-84
2022/10/22 14:26:27;;;;;;;23.35;17.02;;;;;;;;;;1934017;73;21115;-83
2022/10/22 14:28:57;;;;;;;23.50;17.45;;;;;;;;;;1919896;74;21249;-83
2022/10/22 14:31:29;;;;;;;23.95;17.52;;;;;;;;;;1914987;74;21071;-82
2022/10/22 14:34:00;;;;;;;23.60;17.25;;;;;;;;;;1933203;74;21587;-83
2022/10/22 14:36:33;;;;;;;25.97;17.87;;;;;;;;;;1941980;73;21709;-82
2022/10/22 14:39:03;;;;;;;21.65;17.17;;;;;;;;;;1924916;73;21255;-84
2022/10/22 14:41:33;;;;;;;23.65;16.95;;;;;;;;;;1930407;73;21206;-83
2022/10/22 14:44:05;;;;;;;26.93;18.07;;;;;;;;;;1930749;73;21158;-82
2022/10/22 14:46:36;;;;;;;23.60;17.02;;;;;;;;;;1915213;74;21185;-82
2022/10/22 14:49:06;;;;;;;20.88;17.75;;;;;;;;;;1926286;72;21524;-83
2022/10/22 14:51:38;;;;;;;20.10;17.62;;;;;;;;;;1919995;74;21129;-83
2022/10/22 14:54:10;;;;;;;21.93;16.30;;;;;;;;;;1914453;74;21163;-83
2022/10/22 14:56:40;;;;;;;20.40;15.28;;;;;;;;;;1917283;74;21040;-82
2022/10/22 14:59:10;;;;;;;20.45;16.00;;;;;;;;;;1914914;74;21043;-84
2022/10/22 15:01:44;;;;;;;20.92;16.52;;;;;;;;;;1913204;74;21049;-85
2022/10/22 15:04:20;;;;;;;19.42;16.15;;;;;;;;;;1908078;74;21197;-82
2022/10/22 15:06:55;;;;;;;23.52;17.27;;;;;;;;;;1925701;74;21424;-83
2022/10/22 15:09:24;;;;;;;22.73;16.73;;;;;;;;;;1926221;73;21092;-83
2022/10/22 15:11:54;;;;;;;23.57;17.05;;;;;;;;;;1923293;74;21115;-84